sensor_id;sensor_type;location;lat;lon;timestamp;P1;durP1;ratioP1;P2;durP2;ratioP2
68985;SDS011;56035;37.534;-122.308;2022-12-20T00:01:13;36.40;;;18.80;;
68985;SDS011;56035;37.534;-122.308;2022-12-20T00:03:41;74.87;;;24.40;;
68985;SDS011;56035;37.534;-122.308;2022-12-20T00:06:09;42.05;;;20.65;;
68985;SDS011;56035;37.534;-122.308;2022-12-20T00:08:36;39.07;;;21.03;;
68985;SDS011;56035;37.534;-122.308;2022-12-20T00:11:04;38.47;;;19.20;;
68985;SDS011;56035;37.534;-122.308;2022-12-20T00:13:31;33.30;;;17.63;;
68985;SDS011;56035;37.534;-122.308;2022-12-20T00:18:34;33.47;;;17.33;;
68985;SDS011;56035;37.534;-122.308;2022-12-20T00:21:05;36.60;;;17.97;;
68985;SDS011;56035;37.534;-122.308;2022-12-20T00:23:33;38.40;;;19.77;;
68985;SDS011;56035;37.534;-122.308;2022-12-20T00:26:03;32.50;;;16.87;;
68985;SDS011;56035;37.534;-122.308;2022-12-20T00:28:38;40.28;;;18.30;;
68985;SDS011;56035;37.534;-122.308;2022-12-20T00:31:06;33.53;;;17.60;;
68985;SDS011;56035;37.534;-122.308;2022-12-20T00:33:34;104.30;;;28.00;;
68985;SDS011;56035;37.534;-122.308;2022-12-20T00:36:02;74.27;;;23.33;;
68985;SDS011;56035;37.534;-122.308;2022-12-20T00:38:29;37.80;;;17.37;;
68985;SDS011;56035;37.534;-122.308;2022-12-20T00:40:59;31.42;;;16.40;;
68985;SDS011;56035;37.534;-122.308;2022-12-20T00:43:27;36.10;;;18.20;;
68985;SDS011;56035;37.534;-122.308;2022-12-20T00:45:53;34.08;;;17.77;;
68985;SDS011;56035;37.534;-122.308;2022-12-20T00:48:19;38.45;;;18.83;;
68985;SDS011;56035;37.534;-122.308;2022-12-20T00:50:46;39.05;;;19.55;;
68985;SDS011;56035;37.534;-122.308;2022-12-20T00:53:13;37.57;;;18.67;;
68985;SDS011;56035;37.534;-122.308;2022-12-20T00:55:40;40.25;;;19.77;;
68985;SDS011;56035;37.534;-122.308;2022-12-20T00:58:10;44.83;;;18.80;;
68985;SDS011;56035;37.534;-122.308;2022-12-20T01:00:38;36.85;;;17.65;;
68985;SDS011;56035;37.534;-122.308;2022-12-20T01:03:05;117.20;;;22.20;;
68985;SDS011;56035;37.534;-122.308;2022-12-20T01:05:31;38.33;;;17.30;;
68985;SDS011;56035;37.534;-122.308;2022-12-20T01:07:58;35.97;;;18.45;;
68985;SDS011;56035;37.534;-122.308;2022-12-20T01:10:24;39.45;;;20.08;;
68985;SDS011;56035;37.534;-122.308;2022-12-20T01:12:50;40.58;;;19.42;;
68985;SDS011;56035;37.534;-122.308;2022-12-20T01:15:16;35.75;;;16.70;;
68985;SDS011;56035;37.534;-122.308;2022-12-20T01:17:43;36.40;;;17.73;;
68985;SDS011;56035;37.534;-122.308;2022-12-20T01:20:09;35.78;;;17.90;;
68985;SDS011;56035;37.534;-122.308;2022-12-20T01:22:36;35.33;;;17.75;;
68985;SDS011;56035;37.534;-122.308;2022-12-20T01:25:02;40.97;;;17.75;;
68985;SDS011;56035;37.534;-122.308;2022-12-20T01:27:28;38.15;;;18.15;;
68985;SDS011;56035;37.534;-122.308;2022-12-20T01:29:55;39.90;;;17.88;;
68985;SDS011;56035;37.534;-122.308;2022-12-20T01:32:21;35.28;;;17.08;;
68985;SDS011;56035;37.534;-122.308;2022-12-20T01:34:47;34.55;;;16.25;;
68985;SDS011;56035;37.534;-122.308;2022-12-20T01:37:13;37.60;;;17.00;;
68985;SDS011;56035;37.534;-122.308;2022-12-20T01:39:39;38.72;;;18.00;;
68985;SDS011;56035;37.534;-122.308;2022-12-20T01:42:08;37.15;;;17.77;;
68985;SDS011;56035;37.534;-122.308;2022-12-20T01:47:07;39.73;;;18.13;;
68985;SDS011;56035;37.534;-122.308;2022-12-20T01:49:40;43.97;;;19.20;;
68985;SDS011;56035;37.534;-122.308;2022-12-20T01:52:19;40.87;;;18.20;;
68985;SDS011;56035;37.534;-122.308;2022-12-20T01:55:38;40.80;;;18.57;;
68985;SDS011;56035;37.534;-122.308;2022-12-20T01:57:46;39.90;;;18.67;;
68985;SDS011;56035;37.534;-122.308;2022-12-20T02:00:16;39.33;;;18.40;;
68985;SDS011;56035;37.534;-122.308;2022-12-20T02:02:42;37.25;;;16.42;;
68985;SDS011;56035;37.534;-122.308;2022-12-20T02:05:12;35.70;;;16.30;;
68985;SDS011;56035;37.534;-122.308;2022-12-20T02:07:39;40.67;;;17.10;;
68985;SDS011;56035;37.534;-122.308;2022-12-20T02:10:08;37.83;;;16.87;;
68985;SDS011;56035;37.534;-122.308;2022-12-20T02:12:37;39.70;;;17.57;;
68985;SDS011;56035;37.534;-122.308;2022-12-20T02:23:45;39.77;;;18.23;;
68985;SDS011;56035;37.534;-122.308;2022-12-20T02:29:19;42.53;;;17.97;;
68985;SDS011;56035;37.534;-122.308;2022-12-20T02:34:41;41.00;;;17.80;;
68985;SDS011;56035;37.534;-122.308;2022-12-20T02:37:08;43.70;;;18.52;;
68985;SDS011;56035;37.534;-122.308;2022-12-20T02:39:35;43.03;;;18.27;;
68985;SDS011;56035;37.534;-122.308;2022-12-20T02:42:08;37.53;;;16.87;;
68985;SDS011;56035;37.534;-122.308;2022-12-20T02:44:37;36.63;;;17.17;;
68985;SDS011;56035;37.534;-122.308;2022-12-20T02:47:32;44.20;;;19.40;;
68985;SDS011;56035;37.534;-122.308;2022-12-20T02:50:03;43.90;;;18.50;;
68985;SDS011;56035;37.534;-122.308;2022-12-20T02:52:31;42.50;;;19.53;;
68985;SDS011;56035;37.534;-122.308;2022-12-20T02:55:19;41.80;;;18.57;;
68985;SDS011;56035;37.534;-122.308;2022-12-20T02:57:58;45.73;;;19.10;;
68985;SDS011;56035;37.534;-122.308;2022-12-20T03:00:31;41.92;;;18.13;;
68985;SDS011;56035;37.534;-122.308;2022-12-20T03:03:02;42.10;;;19.17;;
68985;SDS011;56035;37.534;-122.308;2022-12-20T03:05:49;44.77;;;18.63;;
68985;SDS011;56035;37.534;-122.308;2022-12-20T03:08:17;41.60;;;18.30;;
68985;SDS011;56035;37.534;-122.308;2022-12-20T03:10:44;44.30;;;19.13;;
68985;SDS011;56035;37.534;-122.308;2022-12-20T03:13:11;44.10;;;19.52;;
68985;SDS011;56035;37.534;-122.308;2022-12-20T03:15:37;44.75;;;19.02;;
68985;SDS011;56035;37.534;-122.308;2022-12-20T03:18:04;40.25;;;18.45;;
68985;SDS011;56035;37.534;-122.308;2022-12-20T03:20:31;44.85;;;19.73;;
68985;SDS011;56035;37.534;-122.308;2022-12-20T03:22:57;46.25;;;18.77;;
68985;SDS011;56035;37.534;-122.308;2022-12-20T03:25:24;47.13;;;19.40;;
68985;SDS011;56035;37.534;-122.308;2022-12-20T03:27:50;46.55;;;20.02;;
68985;SDS011;56035;37.534;-122.308;2022-12-20T03:30:16;40.97;;;18.77;;
68985;SDS011;56035;37.534;-122.308;2022-12-20T03:32:43;44.03;;;18.80;;
68985;SDS011;56035;37.534;-122.308;2022-12-20T03:35:09;45.10;;;20.05;;
68985;SDS011;56035;37.534;-122.308;2022-12-20T03:37:35;41.55;;;20.40;;
68985;SDS011;56035;37.534;-122.308;2022-12-20T03:40:02;46.42;;;18.90;;
68985;SDS011;56035;37.534;-122.308;2022-12-20T03:42:29;39.23;;;18.20;;
68985;SDS011;56035;37.534;-122.308;2022-12-20T03:44:55;44.35;;;18.63;;
68985;SDS011;56035;37.534;-122.308;2022-12-20T03:47:22;45.65;;;19.52;;
68985;SDS011;56035;37.534;-122.308;2022-12-20T03:49:48;42.42;;;19.13;;
68985;SDS011;56035;37.534;-122.308;2022-12-20T03:52:16;44.87;;;19.43;;
68985;SDS011;56035;37.534;-122.308;2022-12-20T03:54:42;44.60;;;18.13;;
68985;SDS011;56035;37.534;-122.308;2022-12-20T03:57:08;38.75;;;17.20;;
68985;SDS011;56035;37.534;-122.308;2022-12-20T03:59:34;42.30;;;17.45;;
68985;SDS011;56035;37.534;-122.308;2022-12-20T04:02:01;42.88;;;18.80;;
68985;SDS011;56035;37.534;-122.308;2022-12-20T04:04:28;37.53;;;16.60;;
68985;SDS011;56035;37.534;-122.308;2022-12-20T04:06:55;39.45;;;17.45;;
68985;SDS011;56035;37.534;-122.308;2022-12-20T04:09:21;39.80;;;17.45;;
68985;SDS011;56035;37.534;-122.308;2022-12-20T04:11:47;39.75;;;18.10;;
68985;SDS011;56035;37.534;-122.308;2022-12-20T04:14:13;40.80;;;18.17;;
68985;SDS011;56035;37.534;-122.308;2022-12-20T04:16:40;40.25;;;17.23;;
68985;SDS011;56035;37.534;-122.308;2022-12-20T04:19:06;41.97;;;18.50;;
68985;SDS011;56035;37.534;-122.308;2022-12-20T04:21:33;46.00;;;19.25;;
68985;SDS011;56035;37.534;-122.308;2022-12-20T04:24:00;43.80;;;18.90;;
68985;SDS011;56035;37.534;-122.308;2022-12-20T04:26:28;44.30;;;19.60;;
68985;SDS011;56035;37.534;-122.308;2022-12-20T04:28:54;32.20;;;13.85;;
68985;SDS011;56035;37.534;-122.308;2022-12-20T04:31:21;45.35;;;18.80;;
68985;SDS011;56035;37.534;-122.308;2022-12-20T04:33:47;45.15;;;18.58;;
68985;SDS011;56035;37.534;-122.308;2022-12-20T04:36:13;40.35;;;18.25;;
68985;SDS011;56035;37.534;-122.308;2022-12-20T04:38:40;42.17;;;18.83;;
68985;SDS011;56035;37.534;-122.308;2022-12-20T04:41:06;51.55;;;19.60;;
68985;SDS011;56035;37.534;-122.308;2022-12-20T04:43:32;43.58;;;18.75;;
68985;SDS011;56035;37.534;-122.308;2022-12-20T04:45:59;45.90;;;19.00;;
68985;SDS011;56035;37.534;-122.308;2022-12-20T04:48:25;45.20;;;19.45;;
68985;SDS011;56035;37.534;-122.308;2022-12-20T04:50:53;40.17;;;17.97;;
68985;SDS011;56035;37.534;-122.308;2022-12-20T04:53:21;43.77;;;18.20;;
68985;SDS011;56035;37.534;-122.308;2022-12-20T04:56:05;43.73;;;18.30;;
68985;SDS011;56035;37.534;-122.308;2022-12-20T05:00:58;41.73;;;18.13;;
68985;SDS011;56035;37.534;-122.308;2022-12-20T05:03:25;40.40;;;17.75;;
68985;SDS011;56035;37.534;-122.308;2022-12-20T05:05:52;41.40;;;18.67;;
68985;SDS011;56035;37.534;-122.308;2022-12-20T05:08:18;36.20;;;17.35;;
68985;SDS011;56035;37.534;-122.308;2022-12-20T05:10:44;42.30;;;17.73;;
68985;SDS011;56035;37.534;-122.308;2022-12-20T05:15:37;44.43;;;18.87;;
68985;SDS011;56035;37.534;-122.308;2022-12-20T05:18:03;45.42;;;18.48;;
68985;SDS011;56035;37.534;-122.308;2022-12-20T05:20:30;39.15;;;17.38;;
68985;SDS011;56035;37.534;-122.308;2022-12-20T05:22:56;45.35;;;17.92;;
68985;SDS011;56035;37.534;-122.308;2022-12-20T05:25:48;42.80;;;17.83;;
68985;SDS011;56035;37.534;-122.308;2022-12-20T05:28:34;43.73;;;18.00;;
68985;SDS011;56035;37.534;-122.308;2022-12-20T05:31:00;47.17;;;19.42;;
68985;SDS011;56035;37.534;-122.308;2022-12-20T05:33:27;42.92;;;18.83;;
68985;SDS011;56035;37.534;-122.308;2022-12-20T05:35:53;43.88;;;18.60;;
68985;SDS011;56035;37.534;-122.308;2022-12-20T05:38:20;45.53;;;20.33;;
68985;SDS011;56035;37.534;-122.308;2022-12-20T05:40:47;43.13;;;19.23;;
68985;SDS011;56035;37.534;-122.308;2022-12-20T05:43:14;49.77;;;20.43;;
68985;SDS011;56035;37.534;-122.308;2022-12-20T05:45:45;51.77;;;22.17;;
68985;SDS011;56035;37.534;-122.308;2022-12-20T05:48:16;49.83;;;20.60;;
68985;SDS011;56035;37.534;-122.308;2022-12-20T05:50:44;58.00;;;23.43;;
68985;SDS011;56035;37.534;-122.308;2022-12-20T05:53:12;51.38;;;23.55;;
68985;SDS011;56035;37.534;-122.308;2022-12-20T05:55:43;51.50;;;22.00;;
68985;SDS011;56035;37.534;-122.308;2022-12-20T05:58:12;51.33;;;24.13;;
68985;SDS011;56035;37.534;-122.308;2022-12-20T06:00:39;51.15;;;22.35;;
68985;SDS011;56035;37.534;-122.308;2022-12-20T06:03:07;55.53;;;22.13;;
68985;SDS011;56035;37.534;-122.308;2022-12-20T06:05:37;56.00;;;19.93;;
68985;SDS011;56035;37.534;-122.308;2022-12-20T06:08:04;48.50;;;20.07;;
68985;SDS011;56035;37.534;-122.308;2022-12-20T06:10:31;49.43;;;20.13;;
68985;SDS011;56035;37.534;-122.308;2022-12-20T06:13:01;50.93;;;20.40;;
68985;SDS011;56035;37.534;-122.308;2022-12-20T06:15:28;52.97;;;21.30;;
68985;SDS011;56035;37.534;-122.308;2022-12-20T06:17:55;49.17;;;20.00;;
68985;SDS011;56035;37.534;-122.308;2022-12-20T06:20:21;52.65;;;20.35;;
68985;SDS011;56035;37.534;-122.308;2022-12-20T06:22:48;46.88;;;20.50;;
68985;SDS011;56035;37.534;-122.308;2022-12-20T06:25:14;50.83;;;20.98;;
68985;SDS011;56035;37.534;-122.308;2022-12-20T06:27:41;45.90;;;20.23;;
68985;SDS011;56035;37.534;-122.308;2022-12-20T06:30:08;51.70;;;20.08;;
68985;SDS011;56035;37.534;-122.308;2022-12-20T06:32:35;44.00;;;19.30;;
68985;SDS011;56035;37.534;-122.308;2022-12-20T06:35:02;46.93;;;18.30;;
68985;SDS011;56035;37.534;-122.308;2022-12-20T06:37:29;50.65;;;20.75;;
68985;SDS011;56035;37.534;-122.308;2022-12-20T06:39:56;49.70;;;20.10;;
68985;SDS011;56035;37.534;-122.308;2022-12-20T06:42:23;51.72;;;19.27;;
68985;SDS011;56035;37.534;-122.308;2022-12-20T06:44:49;49.55;;;20.02;;
68985;SDS011;56035;37.534;-122.308;2022-12-20T06:47:15;54.05;;;22.48;;
68985;SDS011;56035;37.534;-122.308;2022-12-20T06:49:41;50.22;;;20.75;;
68985;SDS011;56035;37.534;-122.308;2022-12-20T06:52:07;46.88;;;20.13;;
68985;SDS011;56035;37.534;-122.308;2022-12-20T06:54:33;45.72;;;19.85;;
68985;SDS011;56035;37.534;-122.308;2022-12-20T06:57:00;50.80;;;20.48;;
68985;SDS011;56035;37.534;-122.308;2022-12-20T06:59:26;51.78;;;20.55;;
68985;SDS011;56035;37.534;-122.308;2022-12-20T07:01:52;48.90;;;20.58;;
68985;SDS011;56035;37.534;-122.308;2022-12-20T07:04:18;48.25;;;19.85;;
68985;SDS011;56035;37.534;-122.308;2022-12-20T07:06:45;49.05;;;19.50;;
68985;SDS011;56035;37.534;-122.308;2022-12-20T07:09:11;48.30;;;21.90;;
68985;SDS011;56035;37.534;-122.308;2022-12-20T07:11:37;49.42;;;19.63;;
68985;SDS011;56035;37.534;-122.308;2022-12-20T07:14:04;55.15;;;21.35;;
68985;SDS011;56035;37.534;-122.308;2022-12-20T07:16:30;47.67;;;19.83;;
68985;SDS011;56035;37.534;-122.308;2022-12-20T07:18:56;37.20;;;14.60;;
68985;SDS011;56035;37.534;-122.308;2022-12-20T07:21:23;51.63;;;20.65;;
68985;SDS011;56035;37.534;-122.308;2022-12-20T07:23:49;47.33;;;20.15;;
68985;SDS011;56035;37.534;-122.308;2022-12-20T07:26:15;50.30;;;20.00;;
68985;SDS011;56035;37.534;-122.308;2022-12-20T07:28:41;51.10;;;20.02;;
68985;SDS011;56035;37.534;-122.308;2022-12-20T07:31:08;48.33;;;20.67;;
68985;SDS011;56035;37.534;-122.308;2022-12-20T07:33:34;54.90;;;20.73;;
68985;SDS011;56035;37.534;-122.308;2022-12-20T07:38:32;49.87;;;20.03;;
68985;SDS011;56035;37.534;-122.308;2022-12-20T07:41:00;51.83;;;20.30;;
68985;SDS011;56035;37.534;-122.308;2022-12-20T07:43:30;47.90;;;18.77;;
68985;SDS011;56035;37.534;-122.308;2022-12-20T07:45:57;46.88;;;19.15;;
68985;SDS011;56035;37.534;-122.308;2022-12-20T07:48:23;50.90;;;20.35;;
68985;SDS011;56035;37.534;-122.308;2022-12-20T07:50:53;51.10;;;20.65;;
68985;SDS011;56035;37.534;-122.308;2022-12-20T07:53:23;52.50;;;19.33;;
68985;SDS011;56035;37.534;-122.308;2022-12-20T07:55:53;54.70;;;21.03;;
68985;SDS011;56035;37.534;-122.308;2022-12-20T07:58:20;50.23;;;20.97;;
68985;SDS011;56035;37.534;-122.308;2022-12-20T08:00:47;53.72;;;21.25;;
68985;SDS011;56035;37.534;-122.308;2022-12-20T08:03:18;55.95;;;21.75;;
68985;SDS011;56035;37.534;-122.308;2022-12-20T08:05:48;55.93;;;21.20;;
68985;SDS011;56035;37.534;-122.308;2022-12-20T08:08:18;55.77;;;21.83;;
68985;SDS011;56035;37.534;-122.308;2022-12-20T08:10:46;54.53;;;21.23;;
68985;SDS011;56035;37.534;-122.308;2022-12-20T08:13:13;57.90;;;21.93;;
68985;SDS011;56035;37.534;-122.308;2022-12-20T08:15:40;51.15;;;20.50;;
68985;SDS011;56035;37.534;-122.308;2022-12-20T08:18:07;55.28;;;20.90;;
68985;SDS011;56035;37.534;-122.308;2022-12-20T08:20:33;51.05;;;19.95;;
68985;SDS011;56035;37.534;-122.308;2022-12-20T08:23:01;51.20;;;20.42;;
68985;SDS011;56035;37.534;-122.308;2022-12-20T08:25:28;51.93;;;20.03;;
68985;SDS011;56035;37.534;-122.308;2022-12-20T08:27:54;38.92;;;15.98;;
68985;SDS011;56035;37.534;-122.308;2022-12-20T08:30:20;51.22;;;20.38;;
68985;SDS011;56035;37.534;-122.308;2022-12-20T08:32:47;47.77;;;16.47;;
68985;SDS011;56035;37.534;-122.308;2022-12-20T08:35:13;53.20;;;19.80;;
68985;SDS011;56035;37.534;-122.308;2022-12-20T08:37:39;57.67;;;19.98;;
68985;SDS011;56035;37.534;-122.308;2022-12-20T08:40:06;52.10;;;21.38;;
68985;SDS011;56035;37.534;-122.308;2022-12-20T08:42:33;56.08;;;20.17;;
68985;SDS011;56035;37.534;-122.308;2022-12-20T08:44:59;54.22;;;20.73;;
68985;SDS011;56035;37.534;-122.308;2022-12-20T08:47:25;51.20;;;20.17;;
68985;SDS011;56035;37.534;-122.308;2022-12-20T08:49:53;54.17;;;19.93;;
68985;SDS011;56035;37.534;-122.308;2022-12-20T08:52:19;53.47;;;20.52;;
68985;SDS011;56035;37.534;-122.308;2022-12-20T08:55:05;54.10;;;20.23;;
68985;SDS011;56035;37.534;-122.308;2022-12-20T08:57:52;53.43;;;20.40;;
68985;SDS011;56035;37.534;-122.308;2022-12-20T09:00:18;54.45;;;19.30;;
68985;SDS011;56035;37.534;-122.308;2022-12-20T09:02:45;61.65;;;21.13;;
68985;SDS011;56035;37.534;-122.308;2022-12-20T09:05:12;52.40;;;20.33;;
68985;SDS011;56035;37.534;-122.308;2022-12-20T09:07:38;42.50;;;15.60;;
68985;SDS011;56035;37.534;-122.308;2022-12-20T09:10:04;39.35;;;14.82;;
68985;SDS011;56035;37.534;-122.308;2022-12-20T09:12:33;58.53;;;21.70;;
68985;SDS011;56035;37.534;-122.308;2022-12-20T09:15:01;59.90;;;20.00;;
68985;SDS011;56035;37.534;-122.308;2022-12-20T09:17:28;58.50;;;20.98;;
68985;SDS011;56035;37.534;-122.308;2022-12-20T09:19:54;56.03;;;21.10;;
68985;SDS011;56035;37.534;-122.308;2022-12-20T09:22:20;63.10;;;21.63;;
68985;SDS011;56035;37.534;-122.308;2022-12-20T09:24:47;61.63;;;22.15;;
68985;SDS011;56035;37.534;-122.308;2022-12-20T09:27:13;57.72;;;21.38;;
68985;SDS011;56035;37.534;-122.308;2022-12-20T09:29:40;61.28;;;22.48;;
68985;SDS011;56035;37.534;-122.308;2022-12-20T09:32:06;68.45;;;22.58;;
68985;SDS011;56035;37.534;-122.308;2022-12-20T09:34:33;65.78;;;21.30;;
68985;SDS011;56035;37.534;-122.308;2022-12-20T09:36:59;65.85;;;22.35;;
68985;SDS011;56035;37.534;-122.308;2022-12-20T09:39:25;50.72;;;17.02;;
68985;SDS011;56035;37.534;-122.308;2022-12-20T09:41:51;66.82;;;22.67;;
68985;SDS011;56035;37.534;-122.308;2022-12-20T09:44:26;67.18;;;23.30;;
68985;SDS011;56035;37.534;-122.308;2022-12-20T09:47:04;64.00;;;22.73;;
68985;SDS011;56035;37.534;-122.308;2022-12-20T09:49:32;69.77;;;23.20;;
68985;SDS011;56035;37.534;-122.308;2022-12-20T09:52:08;67.33;;;22.80;;
68985;SDS011;56035;37.534;-122.308;2022-12-20T09:54:55;68.50;;;22.67;;
68985;SDS011;56035;37.534;-122.308;2022-12-20T10:00:23;62.80;;;22.38;;
68985;SDS011;56035;37.534;-122.308;2022-12-20T10:02:49;70.57;;;22.42;;
68985;SDS011;56035;37.534;-122.308;2022-12-20T10:05:17;68.07;;;23.38;;
68985;SDS011;56035;37.534;-122.308;2022-12-20T10:07:52;66.80;;;23.67;;
68985;SDS011;56035;37.534;-122.308;2022-12-20T10:13:26;67.03;;;23.57;;
68985;SDS011;56035;37.534;-122.308;2022-12-20T10:24:34;79.60;;;23.63;;
68985;SDS011;56035;37.534;-122.308;2022-12-20T10:27:17;75.23;;;24.00;;
68985;SDS011;56035;37.534;-122.308;2022-12-20T10:29:44;75.27;;;24.67;;
68985;SDS011;56035;37.534;-122.308;2022-12-20T10:32:14;74.70;;;24.53;;
68985;SDS011;56035;37.534;-122.308;2022-12-20T10:34:54;80.57;;;24.43;;
68985;SDS011;56035;37.534;-122.308;2022-12-20T10:37:22;75.77;;;25.70;;
68985;SDS011;56035;37.534;-122.308;2022-12-20T10:39:48;79.28;;;24.90;;
68985;SDS011;56035;37.534;-122.308;2022-12-20T10:42:23;91.00;;;26.33;;
68985;SDS011;56035;37.534;-122.308;2022-12-20T10:45:03;83.70;;;26.03;;
68985;SDS011;56035;37.534;-122.308;2022-12-20T10:47:58;79.87;;;24.03;;
68985;SDS011;56035;37.534;-122.308;2022-12-20T10:50:25;84.57;;;28.33;;
68985;SDS011;56035;37.534;-122.308;2022-12-20T10:53:02;85.28;;;25.35;;
68985;SDS011;56035;37.534;-122.308;2022-12-20T10:55:33;83.13;;;26.45;;
68985;SDS011;56035;37.534;-122.308;2022-12-20T10:58:02;94.03;;;26.33;;
68985;SDS011;56035;37.534;-122.308;2022-12-20T11:00:40;83.13;;;25.23;;
68985;SDS011;56035;37.534;-122.308;2022-12-20T11:03:19;62.85;;;20.13;;
68985;SDS011;56035;37.534;-122.308;2022-12-20T11:05:57;76.87;;;23.53;;
68985;SDS011;56035;37.534;-122.308;2022-12-20T11:08:27;79.10;;;24.97;;
68985;SDS011;56035;37.534;-122.308;2022-12-20T11:11:11;84.00;;;25.60;;
68985;SDS011;56035;37.534;-122.308;2022-12-20T11:13:41;77.67;;;25.40;;
68985;SDS011;56035;37.534;-122.308;2022-12-20T11:16:32;78.33;;;24.90;;
68985;SDS011;56035;37.534;-122.308;2022-12-20T11:21:33;75.63;;;23.47;;
68985;SDS011;56035;37.534;-122.308;2022-12-20T11:24:17;78.60;;;24.53;;
68985;SDS011;56035;37.534;-122.308;2022-12-20T11:29:42;67.80;;;23.67;;
68985;SDS011;56035;37.534;-122.308;2022-12-20T11:35:03;78.97;;;24.87;;
68985;SDS011;56035;37.534;-122.308;2022-12-20T11:40:48;79.63;;;24.93;;
68985;SDS011;56035;37.534;-122.308;2022-12-20T11:43:24;81.93;;;25.47;;
68985;SDS011;56035;37.534;-122.308;2022-12-20T11:48:31;79.10;;;24.90;;
68985;SDS011;56035;37.534;-122.308;2022-12-20T11:51:03;73.20;;;24.10;;
68985;SDS011;56035;37.534;-122.308;2022-12-20T11:53:44;75.93;;;25.57;;
68985;SDS011;56035;37.534;-122.308;2022-12-20T11:56:35;70.27;;;24.00;;
68985;SDS011;56035;37.534;-122.308;2022-12-20T11:59:06;80.37;;;24.73;;
68985;SDS011;56035;37.534;-122.308;2022-12-20T12:01:56;69.57;;;22.73;;
68985;SDS011;56035;37.534;-122.308;2022-12-20T12:04:30;70.87;;;23.10;;
68985;SDS011;56035;37.534;-122.308;2022-12-20T12:07:12;69.63;;;24.57;;
68985;SDS011;56035;37.534;-122.308;2022-12-20T12:09:50;69.50;;;23.57;;
68985;SDS011;56035;37.534;-122.308;2022-12-20T12:12:39;71.87;;;25.07;;
68985;SDS011;56035;37.534;-122.308;2022-12-20T12:17:43;71.60;;;23.20;;
68985;SDS011;56035;37.534;-122.308;2022-12-20T12:26:02;67.57;;;24.03;;
68985;SDS011;56035;37.534;-122.308;2022-12-20T12:28:35;71.43;;;25.17;;
68985;SDS011;56035;37.534;-122.308;2022-12-20T12:31:09;67.18;;;23.92;;
68985;SDS011;56035;37.534;-122.308;2022-12-20T12:33:45;70.07;;;24.17;;
68985;SDS011;56035;37.534;-122.308;2022-12-20T12:36:35;73.10;;;23.77;;
68985;SDS011;56035;37.534;-122.308;2022-12-20T12:44:31;69.50;;;22.83;;
68985;SDS011;56035;37.534;-122.308;2022-12-20T12:47:00;69.90;;;23.33;;
68985;SDS011;56035;37.534;-122.308;2022-12-20T12:49:30;70.00;;;23.33;;
68985;SDS011;56035;37.534;-122.308;2022-12-20T12:51:58;66.33;;;22.70;;
68985;SDS011;56035;37.534;-122.308;2022-12-20T12:54:28;69.37;;;23.50;;
68985;SDS011;56035;37.534;-122.308;2022-12-20T12:57:01;70.30;;;23.43;;
68985;SDS011;56035;37.534;-122.308;2022-12-20T13:04:48;72.30;;;22.73;;
68985;SDS011;56035;37.534;-122.308;2022-12-20T13:07:44;67.43;;;23.40;;
68985;SDS011;56035;37.534;-122.308;2022-12-20T13:17:48;68.63;;;23.60;;
68985;SDS011;56035;37.534;-122.308;2022-12-20T13:25:36;74.67;;;24.13;;
68985;SDS011;56035;37.534;-122.308;2022-12-20T13:30:43;75.53;;;25.13;;
68985;SDS011;56035;37.534;-122.308;2022-12-20T13:33:24;69.17;;;24.10;;
68985;SDS011;56035;37.534;-122.308;2022-12-20T13:36:49;69.87;;;23.63;;
68985;SDS011;56035;37.534;-122.308;2022-12-20T13:38:59;72.70;;;23.17;;
68985;SDS011;56035;37.534;-122.308;2022-12-20T13:41:50;66.13;;;22.23;;
68985;SDS011;56035;37.534;-122.308;2022-12-20T13:44:42;68.97;;;22.33;;
68985;SDS011;56035;37.534;-122.308;2022-12-20T13:47:25;72.20;;;23.27;;
68985;SDS011;56035;37.534;-122.308;2022-12-20T13:49:58;74.97;;;24.03;;
68985;SDS011;56035;37.534;-122.308;2022-12-20T13:52:31;67.07;;;22.43;;
68985;SDS011;56035;37.534;-122.308;2022-12-20T13:55:15;67.67;;;22.47;;
68985;SDS011;56035;37.534;-122.308;2022-12-20T13:57:48;66.27;;;22.43;;
68985;SDS011;56035;37.534;-122.308;2022-12-20T14:00:16;67.27;;;23.50;;
68985;SDS011;56035;37.534;-122.308;2022-12-20T14:02:49;66.43;;;24.40;;
68985;SDS011;56035;37.534;-122.308;2022-12-20T14:05:21;69.53;;;23.87;;
68985;SDS011;56035;37.534;-122.308;2022-12-20T14:07:59;68.00;;;22.90;;
68985;SDS011;56035;37.534;-122.308;2022-12-20T14:10:34;67.40;;;22.80;;
68985;SDS011;56035;37.534;-122.308;2022-12-20T14:13:01;75.95;;;23.48;;
68985;SDS011;56035;37.534;-122.308;2022-12-20T14:15:28;77.28;;;25.15;;
68985;SDS011;56035;37.534;-122.308;2022-12-20T14:18:04;74.20;;;24.27;;
68985;SDS011;56035;37.534;-122.308;2022-12-20T14:20:52;76.63;;;24.47;;
68985;SDS011;56035;37.534;-122.308;2022-12-20T14:23:22;79.57;;;25.67;;
68985;SDS011;56035;37.534;-122.308;2022-12-20T14:25:55;76.87;;;24.23;;
68985;SDS011;56035;37.534;-122.308;2022-12-20T14:31:02;74.70;;;23.45;;
68985;SDS011;56035;37.534;-122.308;2022-12-20T14:36:07;80.93;;;26.30;;
68985;SDS011;56035;37.534;-122.308;2022-12-20T14:38:36;75.77;;;24.03;;
68985;SDS011;56035;37.534;-122.308;2022-12-20T14:41:03;75.10;;;25.77;;
68985;SDS011;56035;37.534;-122.308;2022-12-20T14:43:33;62.45;;;20.33;;
68985;SDS011;56035;37.534;-122.308;2022-12-20T14:48:42;81.47;;;26.80;;
68985;SDS011;56035;37.534;-122.308;2022-12-20T14:51:09;89.70;;;26.55;;
68985;SDS011;56035;37.534;-122.308;2022-12-20T14:53:36;96.33;;;29.10;;
68985;SDS011;56035;37.534;-122.308;2022-12-20T14:56:04;93.43;;;27.07;;
68985;SDS011;56035;37.534;-122.308;2022-12-20T14:58:38;88.27;;;27.30;;
68985;SDS011;56035;37.534;-122.308;2022-12-20T15:03:49;90.90;;;26.37;;
68985;SDS011;56035;37.534;-122.308;2022-12-20T15:06:30;88.55;;;27.25;;
68985;SDS011;56035;37.534;-122.308;2022-12-20T15:08:57;87.60;;;26.57;;
68985;SDS011;56035;37.534;-122.308;2022-12-20T15:11:23;90.63;;;27.50;;
68985;SDS011;56035;37.534;-122.308;2022-12-20T15:13:51;92.40;;;27.27;;
68985;SDS011;56035;37.534;-122.308;2022-12-20T15:18:49;100.03;;;28.23;;
68985;SDS011;56035;37.534;-122.308;2022-12-20T15:21:38;91.27;;;27.87;;
68985;SDS011;56035;37.534;-122.308;2022-12-20T15:24:12;88.67;;;28.20;;
68985;SDS011;56035;37.534;-122.308;2022-12-20T15:26:41;90.70;;;29.43;;
68985;SDS011;56035;37.534;-122.308;2022-12-20T15:29:17;96.68;;;28.30;;
68985;SDS011;56035;37.534;-122.308;2022-12-20T15:32:03;103.97;;;28.90;;
68985;SDS011;56035;37.534;-122.308;2022-12-20T15:34:40;94.03;;;28.00;;
68985;SDS011;56035;37.534;-122.308;2022-12-20T15:37:08;110.75;;;31.40;;
68985;SDS011;56035;37.534;-122.308;2022-12-20T15:39:39;102.40;;;30.33;;
68985;SDS011;56035;37.534;-122.308;2022-12-20T15:44:32;95.63;;;28.30;;
68985;SDS011;56035;37.534;-122.308;2022-12-20T15:47:00;99.10;;;28.37;;